Pagrindinis puslapis
METAR-TAF:

METAR-TAF

Oro uostai :

Dresdenas, Vokietija

platuma: 51-08N, ilguma: 013-45E, Aukštis: 230 m

Dabartinis oras

Ataskaita buvo paskelbta 27 minutes, ne 09:50 UTC
Vėjas 8 kt iš Vakarų, svyruoja nuo Pietvakarių ir Šiaurės/Šiaurės Vakarų
Temperatūra 13°C
Drėgmė 58%
Slėgis 1029 hPa
Matomumas 10 km arba daugiau
Išsisklaidę debesys ne aukštis 2800 ft

METAR: EDDC 200950Z 28008KT 220V340 9999 SCT028 13/05 Q1029 NOSIG

Laikas: 12:17 (10:17 UTC)

Prognozė

Ataskaita buvo paskelbta 5 valandos ir 17 minutes, ne 05:00 UTC
Prognozė galioja nuo 20 metu 06 UTC su 21 metu 06 UTC
Vėjas 5 kt iš Pietvakarių
Matomumas 10 km arba daugiau
nėra debesų žemiau 1500 m ir nėra kamuolinių lietaus debesų
Tapsmas
nuo 20 metu 07 UTC su 20 metu 09 UTC
Vėjas 6 kt iš Vakarų/Šiaurės Vakarų
Tapsmas
nuo 20 metu 15 UTC su 20 metu 17 UTC
Vėjas 4 kt iš Pietų

TAF: EDDC 200500Z 2006/2106 23005KT CAVOK BECMG 2007/2009 29006KT BECMG 2015/2017 19004KT

Orai ataskaitas ir orų prognozės (METAR, TAF).

turimą stotys yra geltonos ir raudonos taškus žemėlapyje.

Perkelti pele per norėdami pamatyti stoties vardą.

Tada spustelėkite, norėdami matyti oro stebėjimo ir prognozės.

Norėdami pakeisti žemėlapį: spustelėkite ant žalios mygtukų su juodo kryžiaus žemyn,; žalią mygtuką su brūkšneliu, jei norite nutolinti; arba žalių rodyklių gretimoms žemėlapius.


METAR-TAF: